createdAt,value
2022-08-17T00:00:42.925Z,95450.20
2022-08-17T00:04:38.083Z,95449.61
2022-08-17T00:08:25.732Z,95446.93
2022-08-17T00:12:42.744Z,95448.10
2022-08-17T00:16:55.495Z,95448.35
2022-08-17T00:20:34.850Z,95444.98
2022-08-17T01:16:55.553Z,95425.19
2022-08-17T01:20:48.211Z,95423.58
2022-08-17T01:34:42.798Z,95423.58
2022-08-17T01:38:40.302Z,95424.05
2022-08-17T02:41:20.521Z,95420.03
2022-08-17T02:45:08.610Z,95426.95
2022-08-17T02:48:57.208Z,95426.81
2022-08-17T02:52:45.726Z,95428.98
2022-08-17T04:33:04.018Z,95493.08
2022-08-17T04:37:32.194Z,95492.36
2022-08-17T04:41:19.823Z,95492.98
2022-08-17T04:43:10.687Z,95495.40
2022-08-17T05:13:59.262Z,95504.43
2022-08-17T05:19:36.449Z,95493.59
2022-08-17T05:22:10.990Z,95505.60
2022-08-17T05:35:17.302Z,95512.59
2022-08-17T05:37:10.701Z,95512.52
2022-08-17T05:39:05.694Z,95521.27
2022-08-17T05:42:54.131Z,95525.42
2022-08-17T05:46:58.900Z,95527.62
2022-08-17T05:50:47.458Z,95527.14
2022-08-17T05:59:13.190Z,95530.66
2022-08-17T06:03:22.530Z,95532.28
2022-08-17T06:07:25.720Z,95531.00
2022-08-17T06:11:30.035Z,95528.44
2022-08-17T06:15:37.789Z,95526.70
2022-08-17T06:29:37.980Z,95526.27
2022-08-17T06:43:12.871Z,95521.79
2022-08-17T06:47:07.724Z,95519.83
2022-08-17T07:00:07.874Z,95532.00
2022-08-17T07:03:25.921Z,95534.19
2022-08-17T07:06:37.774Z,95540.15
2022-08-17T07:10:22.591Z,95543.46
2022-08-17T07:18:21.390Z,95555.78
2022-08-17T07:21:58.742Z,95552.98
2022-08-17T07:25:37.576Z,95547.33
2022-08-17T07:28:29.196Z,95554.64
2022-08-17T07:31:04.057Z,95554.55
2022-08-17T07:33:36.085Z,95557.57
2022-08-17T07:36:03.298Z,95557.98
2022-08-17T07:38:35.218Z,95556.70
2022-08-17T07:41:08.901Z,95555.38
2022-08-17T07:43:46.561Z,95555.92
2022-08-17T07:46:49.981Z,95551.34
2022-08-17T07:49:32.358Z,95549.95
2022-08-17T07:52:48.227Z,95554.30
2022-08-17T07:54:51.651Z,95555.88
2022-08-17T07:57:18.568Z,95559.34
2022-08-17T08:00:01.842Z,95559.98
2022-08-17T08:02:45.519Z,95558.10
2022-08-17T08:05:12.341Z,95559.39
2022-08-17T08:07:50.683Z,95561.40
2022-08-17T08:10:57.128Z,95562.82
2022-08-17T08:13:27.349Z,95563.61
2022-08-17T08:16:19.406Z,95563.34
2022-08-17T08:18:54.066Z,95559.29
2022-08-17T08:21:41.769Z,95556.59
2022-08-17T08:24:14.400Z,95556.02
2022-08-17T08:26:59.740Z,95554.20
2022-08-17T08:29:48.184Z,95557.44
2022-08-17T08:32:43.697Z,95560.83
2022-08-17T08:35:18.525Z,95559.81
2022-08-17T08:38:24.157Z,95564.09
2022-08-17T08:41:21.033Z,95563.05
2022-08-17T08:44:03.157Z,95561.13
2022-08-17T08:46:44.915Z,95560.59
2022-08-17T08:50:04.808Z,95559.95
2022-08-17T08:52:54.505Z,95559.41
2022-08-17T08:55:44.109Z,95557.49
2022-08-17T08:58:31.884Z,95554.40
2022-08-17T09:01:17.134Z,95553.61
2022-08-17T09:04:29.686Z,95552.77
2022-08-17T09:07:09.439Z,95552.73
2022-08-17T09:09:58.984Z,95555.14
2022-08-17T09:12:35.261Z,95557.13
2022-08-17T09:15:31.476Z,95558.02
2022-08-17T09:19:00.480Z,95557.27
2022-08-17T09:21:18.479Z,95556.50
2022-08-17T09:24:06.408Z,95561.03
2022-08-17T09:26:53.277Z,95560.61
2022-08-17T09:29:24.792Z,95564.08
2022-08-17T09:31:59.142Z,95562.68
2022-08-17T09:34:38.113Z,95564.69
2022-08-17T09:37:17.623Z,95560.38
2022-08-17T09:40:13.066Z,95566.98
2022-08-17T09:42:48.224Z,95564.67
2022-08-17T09:45:37.137Z,95564.91
2022-08-17T09:48:11.530Z,95564.61
2022-08-17T09:51:22.971Z,95563.24
2022-08-17T09:53:50.529Z,95564.52
2022-08-17T09:57:28.510Z,95569.06
2022-08-17T10:00:15.714Z,95574.98
2022-08-17T10:03:03.985Z,95572.81
2022-08-17T10:05:50.645Z,95569.53
2022-08-17T10:08:43.304Z,95563.61
2022-08-17T10:11:57.609Z,95561.70
2022-08-17T10:14:36.928Z,95558.04
2022-08-17T10:17:20.690Z,95554.92
2022-08-17T10:20:15.461Z,95554.89
2022-08-17T10:23:08.560Z,95555.63
2022-08-17T10:26:12.189Z,95555.67
2022-08-17T10:28:43.169Z,95557.58
2022-08-17T10:31:34.317Z,95555.23
2022-08-17T10:34:01.585Z,95560.50
2022-08-17T10:37:05.527Z,95564.20
2022-08-17T10:39:52.323Z,95562.20
2022-08-17T10:42:30.362Z,95554.09
2022-08-17T10:45:18.439Z,95548.91
2022-08-17T10:48:06.853Z,95548.17
2022-08-17T10:50:46.923Z,95549.15
2022-08-17T10:53:40.358Z,95548.06
2022-08-17T10:56:13.067Z,95545.27
2022-08-17T10:58:53.489Z,95536.82
2022-08-17T11:01:32.157Z,95542.77
2022-08-17T11:04:02.943Z,95540.08
2022-08-17T11:06:29.444Z,95538.16
2022-08-17T11:08:58.957Z,95537.45
2022-08-17T11:11:39.549Z,95543.29
2022-08-17T11:14:10.605Z,95543.29
2022-08-17T11:16:47.414Z,95542.27
2022-08-17T11:19:26.691Z,95545.84
2022-08-17T11:22:21.722Z,95547.61
2022-08-17T11:24:52.639Z,95545.70
2022-08-17T11:27:32.403Z,95544.48
2022-08-17T11:30:05.556Z,95542.41
2022-08-17T11:32:55.461Z,95542.63
2022-08-17T11:35:23.858Z,95539.17
2022-08-17T11:37:53.490Z,95535.42
2022-08-17T11:40:33.768Z,95528.88
2022-08-17T11:43:29.010Z,95526.02
2022-08-17T11:46:15.516Z,95519.30
2022-08-17T11:49:05.608Z,95519.23
2022-08-17T11:51:59.748Z,95518.04
2022-08-17T11:54:33.262Z,95517.33
2022-08-17T11:57:33.420Z,95511.15
2022-08-17T12:01:08.400Z,95515.48
2022-08-17T12:04:35.894Z,95511.60
2022-08-17T12:07:32.241Z,95505.92
2022-08-17T12:10:45.182Z,95507.77
2022-08-17T12:13:52.629Z,95504.14
2022-08-17T12:16:22.094Z,95506.67
2022-08-17T12:19:37.176Z,95506.63
2022-08-17T12:22:52.857Z,95504.29
2022-08-17T12:26:00.977Z,95502.27
2022-08-17T12:28:38.275Z,95500.56
2022-08-17T12:31:30.523Z,95504.23
2022-08-17T12:34:18.470Z,95504.65
2022-08-17T12:37:55.190Z,95506.45
2022-08-17T12:41:47.846Z,95506.90
2022-08-17T12:45:01.547Z,95512.48
2022-08-17T12:47:47.353Z,95505.73
2022-08-17T12:50:47.614Z,95499.20
2022-08-17T12:53:47.539Z,95500.85
2022-08-17T12:56:16.374Z,95502.36
2022-08-17T12:59:11.731Z,95499.00
2022-08-17T13:01:42.631Z,95504.03
2022-08-17T13:05:10.979Z,95500.90
2022-08-17T13:09:00.780Z,95498.71
2022-08-17T13:12:32.013Z,95503.29
2022-08-17T13:16:21.638Z,95505.20
2022-08-17T13:19:48.880Z,95502.73
2022-08-17T13:23:36.397Z,95496.30
2022-08-17T13:27:32.753Z,95497.11
2022-08-17T13:31:20.283Z,95501.45
2022-08-17T13:35:13.781Z,95503.53
2022-08-17T13:38:30.752Z,95508.35
2022-08-17T13:41:44.658Z,95509.83
2022-08-17T13:45:34.875Z,95511.16
2022-08-17T13:48:35.670Z,95518.67
2022-08-17T13:52:07.357Z,95519.95
2022-08-17T13:55:34.292Z,95521.16
2022-08-17T13:59:09.362Z,95524.20
2022-08-17T14:02:56.907Z,95523.75
2022-08-17T14:06:52.154Z,95515.77
2022-08-17T14:10:40.314Z,95515.59
2022-08-17T14:14:27.840Z,95512.65
2022-08-17T14:18:15.338Z,95512.64
2022-08-17T14:22:02.935Z,95510.90
2022-08-17T14:25:32.627Z,95509.61
2022-08-17T14:29:16.913Z,95513.21
2022-08-17T14:33:04.047Z,95505.08
2022-08-17T14:36:51.195Z,95504.42
2022-08-17T14:40:38.647Z,95507.93
2022-08-17T14:44:26.694Z,95513.25
2022-08-17T14:48:13.624Z,95512.02
2022-08-17T14:51:51.346Z,95512.96
2022-08-17T14:55:38.959Z,95518.73
2022-08-17T15:00:31.432Z,95520.74
2022-08-17T15:03:42.805Z,95524.17
2022-08-17T15:07:32.850Z,95525.52
2022-08-17T15:11:20.359Z,95526.33
2022-08-17T15:15:07.958Z,95523.30
2022-08-17T15:19:01.867Z,95520.55
2022-08-17T15:22:51.553Z,95508.89
2022-08-17T15:26:39.038Z,95514.17
2022-08-17T15:30:26.516Z,95526.02
2022-08-17T15:34:14.062Z,95532.91
2022-08-17T15:38:04.931Z,95541.17
2022-08-17T15:41:58.422Z,95551.19
2022-08-17T15:45:58.807Z,95565.91
2022-08-17T15:49:47.691Z,95593.57
2022-08-17T15:53:35.239Z,95611.67
2022-08-17T15:57:24.207Z,95627.25
2022-08-17T16:01:14.114Z,95624.43
2022-08-17T16:05:04.636Z,95627.79
2022-08-17T16:08:57.747Z,95635.42
2022-08-17T16:11:45.432Z,95629.00
2022-08-17T16:14:19.673Z,95628.54
2022-08-17T16:16:49.085Z,95628.42
2022-08-17T16:19:15.689Z,95625.83
2022-08-17T16:21:43.161Z,95612.03
2022-08-17T16:24:13.114Z,95611.71
2022-08-17T16:26:41.223Z,95607.35
2022-08-17T16:29:09.201Z,95604.66
2022-08-17T16:31:37.112Z,95598.87
2022-08-17T16:34:17.876Z,95601.66
2022-08-17T16:36:54.978Z,95602.06
2022-08-17T16:39:48.505Z,95607.55
2022-08-17T16:42:29.575Z,95609.32
2022-08-17T16:45:02.359Z,95614.81
2022-08-17T16:47:29.025Z,95615.33
2022-08-17T16:49:55.696Z,95613.16
2022-08-17T16:52:32.480Z,95622.10
2022-08-17T16:55:02.021Z,95627.77
2022-08-17T16:57:29.555Z,95630.77
2022-08-17T16:59:56.769Z,95632.89
2022-08-17T17:02:35.848Z,95632.34
2022-08-17T17:05:27.160Z,95638.42
2022-08-17T17:08:17.607Z,95643.48
2022-08-17T17:10:48.543Z,95643.66
2022-08-17T17:13:31.592Z,95638.45
2022-08-17T17:16:30.937Z,95636.74
2022-08-17T17:19:12.744Z,95642.06
2022-08-17T17:21:39.756Z,95645.19
2022-08-17T17:24:13.585Z,95641.55
2022-08-17T17:26:56.028Z,95640.17
2022-08-17T17:29:47.941Z,95638.59
2022-08-17T17:32:24.083Z,95637.48
2022-08-17T17:34:56.075Z,95635.86
2022-08-17T17:37:32.091Z,95643.23
2022-08-17T17:40:05.180Z,95643.30
2022-08-17T17:42:32.789Z,95643.42
2022-08-17T17:45:15.364Z,95642.27
2022-08-17T17:47:43.468Z,95648.27
2022-08-17T17:50:11.194Z,95646.13
2022-08-17T17:52:49.838Z,95642.38
2022-08-17T17:55:26.396Z,95640.02
2022-08-17T17:58:02.317Z,95643.98
2022-08-17T18:00:42.967Z,95647.66
2022-08-17T18:03:12.666Z,95651.86
2022-08-17T18:06:06.345Z,95651.29
2022-08-17T18:08:35.678Z,95654.00
2022-08-17T18:11:51.440Z,95655.33
2022-08-17T18:14:36.954Z,95660.25
2022-08-17T18:17:03.589Z,95657.17
2022-08-17T18:19:31.409Z,95659.94
2022-08-17T18:22:14.447Z,95663.19
2022-08-17T18:24:45.680Z,95661.09
2022-08-17T18:27:31.162Z,95663.65
2022-08-17T18:30:22.039Z,95662.34
2022-08-17T18:32:49.475Z,95661.13
2022-08-17T18:35:19.085Z,95664.95
2022-08-17T18:38:19.448Z,95665.61
2022-08-17T18:40:58.036Z,95663.53
2022-08-17T18:43:44.417Z,95659.89
2022-08-17T18:46:29.694Z,95656.73
2022-08-17T18:49:06.990Z,95659.05
2022-08-17T18:51:40.629Z,95657.89
2022-08-17T18:54:18.156Z,95659.91
2022-08-17T18:56:48.802Z,95663.61
2022-08-17T18:59:26.491Z,95667.26
2022-08-17T19:01:58.444Z,95665.20
2022-08-17T19:04:40.613Z,95666.06
2022-08-17T19:07:16.283Z,95665.14
2022-08-17T19:09:47.961Z,95666.66
2022-08-17T19:12:39.766Z,95667.20
2022-08-17T19:15:09.973Z,95674.63
2022-08-17T19:17:48.714Z,95677.83
2022-08-17T19:20:19.833Z,95676.94
2022-08-17T19:23:01.631Z,95677.14
2022-08-17T19:25:40.424Z,95676.77
2022-08-17T19:28:22.641Z,95676.50
2022-08-17T19:31:13.569Z,95676.43
2022-08-17T19:33:40.161Z,95678.43
2022-08-17T19:36:18.069Z,95677.17
2022-08-17T19:38:56.346Z,95674.54
2022-08-17T19:41:28.412Z,95674.81
2022-08-17T19:44:01.985Z,95676.16
2022-08-17T19:46:37.404Z,95673.54
2022-08-17T19:49:34.463Z,95672.11
2022-08-17T19:52:39.146Z,95665.20
2022-08-17T19:55:14.722Z,95660.33
2022-08-17T19:57:54.556Z,95662.55
2022-08-17T20:00:21.440Z,95664.63
2022-08-17T20:02:54.302Z,95669.80
2022-08-17T20:05:44.213Z,95666.48
2022-08-17T20:08:41.880Z,95663.23
2022-08-17T20:11:44.684Z,95666.19
2022-08-17T20:14:23.690Z,95666.84
2022-08-17T20:16:51.919Z,95661.26
2022-08-17T20:19:24.327Z,95664.22
2022-08-17T20:22:06.623Z,95671.14
2022-08-17T20:25:30.525Z,95677.15
2022-08-17T20:28:30.560Z,95677.45
2022-08-17T20:31:44.817Z,95676.82
2022-08-17T20:34:54.377Z,95670.84
2022-08-17T20:37:30.576Z,95669.73
2022-08-17T20:40:05.859Z,95669.79
2022-08-17T20:42:33.888Z,95676.78
2022-08-17T20:45:23.816Z,95673.98
2022-08-17T20:51:00.730Z,95675.92
2022-08-17T20:53:46.324Z,95676.44
2022-08-17T20:56:32.799Z,95674.16
2022-08-17T20:59:00.223Z,95677.51
2022-08-17T21:02:06.661Z,95675.64
2022-08-17T21:05:04.351Z,95676.91
2022-08-17T21:07:42.613Z,95677.69
2022-08-17T21:10:25.200Z,95680.34
2022-08-17T21:12:59.013Z,95680.16
2022-08-17T21:15:48.463Z,95677.47
2022-08-17T21:18:27.430Z,95674.83
2022-08-17T21:21:37.309Z,95668.84
2022-08-17T21:24:06.962Z,95667.56
2022-08-17T21:26:50.736Z,95666.92
2022-08-17T21:29:32.045Z,95668.49
2022-08-17T21:32:02.388Z,95664.67
2022-08-17T21:34:43.820Z,95664.84
2022-08-17T21:37:19.929Z,95662.23
2022-08-17T21:40:00.925Z,95661.13
2022-08-17T21:42:34.016Z,95655.80
2022-08-17T21:45:20.329Z,95658.40
2022-08-17T21:48:07.415Z,95660.15
2022-08-17T21:50:36.893Z,95661.44
2022-08-17T21:53:05.582Z,95663.45
2022-08-17T21:55:35.584Z,95666.31
2022-08-17T21:58:14.178Z,95664.37
2022-08-17T22:00:54.657Z,95663.98
2022-08-17T22:03:25.719Z,95663.35
2022-08-17T22:05:52.637Z,95661.41
2022-08-17T22:08:23.951Z,95663.91
2022-08-17T22:11:01.484Z,95667.09
2022-08-17T22:13:29.591Z,95671.34
2022-08-17T22:16:15.377Z,95671.47
2022-08-17T22:18:57.726Z,95672.75
2022-08-17T22:21:25.255Z,95674.17
2022-08-17T22:24:24.064Z,95671.77
2022-08-17T22:27:10.790Z,95668.19
2022-08-17T22:29:57.558Z,95666.31
2022-08-17T22:32:44.143Z,95667.84
2022-08-17T22:35:20.350Z,95663.98
2022-08-17T22:37:47.194Z,95661.77
2022-08-17T22:40:29.827Z,95661.94
2022-08-17T22:42:58.253Z,95664.05
2022-08-17T22:45:30.495Z,95665.44
2022-08-17T22:47:59.504Z,95664.56
2022-08-17T22:50:28.985Z,95662.11
2022-08-17T22:53:20.652Z,95659.61
2022-08-17T22:56:12.886Z,95659.40
2022-08-17T22:59:13.400Z,95659.44
2022-08-17T23:01:42.010Z,95657.89
2022-08-17T23:04:29.214Z,95657.61
2022-08-17T23:06:55.999Z,95656.83
2022-08-17T23:09:22.620Z,95657.27
2022-08-17T23:11:58.313Z,95655.82
2022-08-17T23:14:30.943Z,95657.09
2022-08-17T23:16:58.877Z,95664.70
2022-08-17T23:19:27.386Z,95661.35
2022-08-17T23:21:55.900Z,95665.35
2022-08-17T23:24:26.615Z,95665.20
2022-08-17T23:26:56.672Z,95664.80
2022-08-17T23:29:24.703Z,95661.05
2022-08-17T23:31:52.633Z,95657.26
2022-08-17T23:34:19.423Z,95653.92
2022-08-17T23:36:50.210Z,95646.65
2022-08-17T23:39:24.284Z,95645.48
2022-08-17T23:41:59.856Z,95644.67
2022-08-17T23:44:30.511Z,95644.16
2022-08-17T23:46:57.198Z,95646.66
2022-08-17T23:49:24.691Z,95649.25
2022-08-17T23:51:54.522Z,95647.34
2022-08-17T23:54:23.501Z,95644.48
2022-08-17T23:56:50.265Z,95647.29
2022-08-17T23:59:19.180Z,95652.77
